createdAt,value
2023-04-02T00:00:18.119Z,2.50
2023-04-02T00:03:01.062Z,5.85
2023-04-02T00:05:51.739Z,2.22
2023-04-02T00:08:27.147Z,2.60
2023-04-02T00:10:58.208Z,2.90
2023-04-02T00:13:37.385Z,3.20
2023-04-02T00:16:09.183Z,2.58
2023-04-02T00:18:43.924Z,2.80
2023-04-02T00:21:20.787Z,4.47
2023-04-02T00:23:51.496Z,3.58
2023-04-02T00:26:25.637Z,3.25
2023-04-02T00:28:54.738Z,2.58
2023-04-02T00:31:24.439Z,2.60
2023-04-02T00:33:54.596Z,1.88
2023-04-02T00:36:25.849Z,2.22
2023-04-02T00:38:59.096Z,2.60
2023-04-02T00:41:31.104Z,2.95
2023-04-02T00:44:01.887Z,2.83
2023-04-02T00:46:35.424Z,2.92
2023-04-02T00:49:11.409Z,3.13
2023-04-02T00:54:17.451Z,1.92
2023-04-02T00:56:48.112Z,1.70
2023-04-02T00:59:26.382Z,2.30
2023-04-02T01:02:02.287Z,2.10
2023-04-02T01:07:05.991Z,2.45
2023-04-02T01:10:01.169Z,2.38
2023-04-02T01:12:43.258Z,2.25
2023-04-02T01:15:19.554Z,3.40
2023-04-02T01:18:20.807Z,3.47
2023-04-02T01:21:29.018Z,3.00
2023-04-02T01:24:06.368Z,1.98
2023-04-02T01:26:49.372Z,2.08
2023-04-02T01:29:23.305Z,2.53
2023-04-02T01:31:54.064Z,1.90
2023-04-02T01:34:27.193Z,2.80
2023-04-02T01:37:15.529Z,1.90
2023-04-02T01:39:55.340Z,3.28
2023-04-02T01:42:31.193Z,2.22
2023-04-02T01:45:06.001Z,2.22
2023-04-02T01:47:35.079Z,3.83
2023-04-02T01:50:06.317Z,2.67
2023-04-02T01:52:42.066Z,2.90
2023-04-02T01:55:16.314Z,2.83
2023-04-02T01:57:48.244Z,2.97
2023-04-02T02:00:20.604Z,2.38
2023-04-02T02:02:52.108Z,4.15
2023-04-02T02:05:26.258Z,3.50
2023-04-02T02:07:57.613Z,1.95
2023-04-02T02:10:29.366Z,2.03
2023-04-02T02:13:01.232Z,2.63
2023-04-02T02:15:35.065Z,3.95
2023-04-02T02:18:07.431Z,4.13
2023-04-02T02:20:37.370Z,2.85
2023-04-02T02:23:07.067Z,4.47
2023-04-02T02:25:38.026Z,4.60
2023-04-02T02:28:11.066Z,3.83
2023-04-02T02:30:45.933Z,3.92
2023-04-02T02:33:21.777Z,5.03
2023-04-02T02:35:56.888Z,3.45
2023-04-02T02:38:46.642Z,4.55
2023-04-02T02:41:20.713Z,3.45
2023-04-02T02:43:59.269Z,3.47
2023-04-02T02:46:32.963Z,4.28
2023-04-02T02:49:05.501Z,3.67
2023-04-02T02:51:43.402Z,6.03
2023-04-02T02:54:14.133Z,3.00
2023-04-02T02:56:48.752Z,3.47
2023-04-02T02:59:18.482Z,2.95
2023-04-02T03:01:49.556Z,3.00
2023-04-02T03:04:23.434Z,3.05
2023-04-02T03:06:54.446Z,5.60
2023-04-02T03:09:35.122Z,3.28
2023-04-02T03:12:10.032Z,3.40
2023-04-02T03:14:45.329Z,3.65
2023-04-02T03:17:22.651Z,5.83
2023-04-02T03:19:56.290Z,4.45
2023-04-02T03:22:33.126Z,4.28
2023-04-02T03:25:06.657Z,2.92
2023-04-02T03:27:39.958Z,3.67
2023-04-02T03:30:31.700Z,4.97
2023-04-02T03:33:05.443Z,4.95
2023-04-02T03:35:41.639Z,4.75
2023-04-02T03:40:46.043Z,4.93
2023-04-02T03:43:22.120Z,5.88
2023-04-02T03:45:56.522Z,5.47
2023-04-02T03:48:31.705Z,3.95
2023-04-02T03:51:05.254Z,5.55
2023-04-02T03:53:34.987Z,6.63
2023-04-02T03:56:04.773Z,4.72
2023-04-02T03:58:40.789Z,4.30
2023-04-02T04:01:18.400Z,6.70
2023-04-02T04:03:52.065Z,4.80
2023-04-02T04:06:25.711Z,4.95
2023-04-02T04:08:57.974Z,7.65
2023-04-02T04:11:31.737Z,4.95
2023-04-02T04:14:05.470Z,5.78
2023-04-02T04:16:43.749Z,6.50
2023-04-02T04:19:20.331Z,5.38
2023-04-02T04:21:49.783Z,4.75
2023-04-02T04:24:22.796Z,7.32
2023-04-02T04:26:56.602Z,4.65
2023-04-02T04:29:41.512Z,4.40
2023-04-02T04:32:19.414Z,5.63
2023-04-02T04:34:54.346Z,4.30
2023-04-02T04:37:29.946Z,4.28
2023-04-02T04:40:03.844Z,4.90
2023-04-02T04:42:36.170Z,4.28
2023-04-02T04:45:15.128Z,5.25
2023-04-02T04:47:50.181Z,3.28
2023-04-02T04:50:30.584Z,5.38
2023-04-02T04:53:07.347Z,5.60
2023-04-02T04:55:43.712Z,6.32
2023-04-02T04:58:22.332Z,5.97
2023-04-02T05:01:02.398Z,8.95
2023-04-02T05:03:36.078Z,5.75
2023-04-02T05:06:12.677Z,7.18
2023-04-02T05:08:46.642Z,4.97
2023-04-02T05:11:23.500Z,5.25
2023-04-02T05:13:55.373Z,8.82
2023-04-02T05:16:30.209Z,6.18
2023-04-02T05:19:07.514Z,7.28
2023-04-02T05:21:42.421Z,8.48
2023-04-02T05:24:45.628Z,4.93
2023-04-02T05:27:30.613Z,6.88
2023-04-02T05:30:06.439Z,5.70
2023-04-02T05:32:42.095Z,7.38
2023-04-02T05:35:17.472Z,7.25
2023-04-02T05:37:48.537Z,7.07
2023-04-02T05:40:25.328Z,9.68
2023-04-02T05:42:56.449Z,6.63
2023-04-02T05:45:32.111Z,8.23
2023-04-02T05:48:03.792Z,7.28
2023-04-02T05:50:38.218Z,7.78
2023-04-02T05:53:15.786Z,7.30
2023-04-02T05:55:52.496Z,7.75
2023-04-02T05:58:36.081Z,6.43
2023-04-02T06:01:21.683Z,5.18
2023-04-02T06:04:00.645Z,7.63
2023-04-02T06:06:50.768Z,6.05
2023-04-02T06:09:29.597Z,7.95
2023-04-02T06:12:09.177Z,7.72
2023-04-02T06:14:38.252Z,5.18
2023-04-02T06:17:07.525Z,5.88
2023-04-02T06:19:39.686Z,6.38
2023-04-02T06:22:19.984Z,5.75
2023-04-02T06:24:56.226Z,5.10
2023-04-02T06:27:27.308Z,7.82
2023-04-02T06:30:00.968Z,6.90
2023-04-02T06:32:30.085Z,7.20
2023-04-02T06:34:59.273Z,8.70
2023-04-02T06:37:33.559Z,6.68
2023-04-02T06:40:05.774Z,7.75
2023-04-02T06:42:38.468Z,8.40
2023-04-02T06:45:15.567Z,9.88
2023-04-02T06:47:48.074Z,9.55
2023-04-02T06:50:24.257Z,11.75
2023-04-02T06:52:54.991Z,8.32
2023-04-02T06:55:38.439Z,11.70
2023-04-02T06:58:07.607Z,8.65
2023-04-02T07:00:38.251Z,9.10
2023-04-02T07:03:08.945Z,10.52
2023-04-02T07:05:38.860Z,9.05
2023-04-02T07:08:08.959Z,9.10
2023-04-02T07:10:39.600Z,9.50
2023-04-02T07:13:10.068Z,8.95
2023-04-02T07:15:39.609Z,9.68
2023-04-02T07:18:10.538Z,7.45
2023-04-02T07:20:39.661Z,8.45
2023-04-02T07:23:09.135Z,10.07
2023-04-02T07:25:39.845Z,11.30
2023-04-02T07:28:08.943Z,7.53
2023-04-02T07:30:38.209Z,8.82
2023-04-02T07:33:07.506Z,11.45
2023-04-02T07:35:36.869Z,9.40
2023-04-02T07:38:06.384Z,7.07
2023-04-02T07:40:35.662Z,8.13
2023-04-02T07:43:07.304Z,11.20
2023-04-02T07:45:37.002Z,9.30
2023-04-02T07:48:07.809Z,9.75
2023-04-02T07:50:37.491Z,9.50
2023-04-02T07:53:07.927Z,8.75
2023-04-02T07:55:37.465Z,9.95
2023-04-02T07:58:08.188Z,9.57
2023-04-02T08:00:37.453Z,9.65
2023-04-02T08:03:06.630Z,6.57
2023-04-02T08:05:35.869Z,7.88
2023-04-02T08:08:05.021Z,7.68
2023-04-02T08:10:34.042Z,8.68
2023-04-02T08:13:03.095Z,6.72
2023-04-02T08:15:34.093Z,6.97
2023-04-02T08:18:03.316Z,5.95
2023-04-02T08:20:32.559Z,8.27
2023-04-02T08:23:02.159Z,8.25
2023-04-02T08:25:31.193Z,8.90
2023-04-02T08:28:02.222Z,7.43
2023-04-02T08:30:33.154Z,6.57
2023-04-02T08:33:02.144Z,5.97
2023-04-02T08:35:31.365Z,4.97
2023-04-02T08:38:00.437Z,6.80
2023-04-02T08:40:34.217Z,7.97
2023-04-02T08:43:31.809Z,6.35
2023-04-02T08:46:11.599Z,8.95
2023-04-02T08:48:45.246Z,7.55
2023-04-02T08:51:24.155Z,6.03
2023-04-02T08:53:55.526Z,10.48
2023-04-02T08:56:31.793Z,6.90
2023-04-02T08:59:04.620Z,7.00
2023-04-02T09:01:48.140Z,9.10
2023-04-02T09:04:19.663Z,7.15
2023-04-02T09:06:50.460Z,6.45
2023-04-02T09:09:20.020Z,9.35
2023-04-02T09:11:55.333Z,7.70
2023-04-02T09:14:31.403Z,9.00
2023-04-02T09:17:05.060Z,11.15
2023-04-02T09:19:37.507Z,8.00
2023-04-02T09:22:17.529Z,9.32
2023-04-02T09:24:46.591Z,6.78
2023-04-02T09:27:20.400Z,5.82
2023-04-02T09:29:52.708Z,6.90
2023-04-02T09:32:49.248Z,6.30
2023-04-02T09:35:39.048Z,7.78
2023-04-02T09:38:33.772Z,9.45
2023-04-02T09:41:04.446Z,9.02
2023-04-02T09:43:34.861Z,9.70
2023-04-02T09:46:05.875Z,10.80
2023-04-02T09:48:44.689Z,8.27
2023-04-02T09:51:16.206Z,6.80
2023-04-02T09:53:47.083Z,7.05
2023-04-02T09:56:18.688Z,5.47
2023-04-02T09:59:03.253Z,7.80
2023-04-02T10:01:34.313Z,7.00
2023-04-02T10:04:07.422Z,5.05
2023-04-02T10:06:37.152Z,7.30
2023-04-02T10:09:22.448Z,5.00
2023-04-02T10:11:53.052Z,5.43
2023-04-02T10:14:25.378Z,5.45
2023-04-02T10:16:58.236Z,4.72
2023-04-02T10:19:33.304Z,5.88
2023-04-02T10:22:07.062Z,4.50
2023-04-02T10:24:36.298Z,7.80
2023-04-02T10:27:19.248Z,9.00
2023-04-02T10:30:10.333Z,8.90
2023-04-02T10:32:45.612Z,9.20
2023-04-02T10:35:26.168Z,10.20
2023-04-02T10:38:07.981Z,8.93
2023-04-02T10:40:41.259Z,9.18
2023-04-02T10:43:37.379Z,7.32
2023-04-02T10:46:12.166Z,8.40
2023-04-02T10:48:53.321Z,10.60
2023-04-02T10:51:33.967Z,8.13
2023-04-02T10:54:14.366Z,8.38
2023-04-02T10:56:50.947Z,7.25
2023-04-02T10:59:24.376Z,7.53
2023-04-02T11:01:57.634Z,7.28
2023-04-02T11:04:32.481Z,8.15
2023-04-02T11:07:14.365Z,8.35
2023-04-02T11:09:48.188Z,7.45
2023-04-02T11:12:24.622Z,6.80
2023-04-02T11:17:25.030Z,7.40
2023-04-02T11:19:54.862Z,7.40
2023-04-02T11:22:26.722Z,9.05
2023-04-02T11:24:57.396Z,7.05
2023-04-02T11:27:31.279Z,7.03
2023-04-02T11:30:07.512Z,9.43
2023-04-02T11:32:40.101Z,7.68
2023-04-02T11:35:29.176Z,6.57
2023-04-02T11:38:06.508Z,10.00
2023-04-02T11:40:50.636Z,8.52
2023-04-02T11:44:00.818Z,6.93
2023-04-02T11:46:46.376Z,7.88
2023-04-02T11:50:05.021Z,9.27
2023-04-02T11:52:38.084Z,7.07
2023-04-02T11:55:28.007Z,8.05
2023-04-02T11:58:31.311Z,7.45
2023-04-02T12:01:35.435Z,7.10
2023-04-02T12:04:36.754Z,6.13
2023-04-02T12:07:35.544Z,6.75
2023-04-02T12:10:07.106Z,5.65
2023-04-02T12:12:39.925Z,7.05
2023-04-02T12:15:30.061Z,5.93
2023-04-02T12:18:07.598Z,5.95
2023-04-02T12:20:37.340Z,7.47
2023-04-02T12:23:06.938Z,6.60
2023-04-02T12:25:41.601Z,7.00
2023-04-02T12:28:21.475Z,8.52
2023-04-02T12:30:52.022Z,6.63
2023-04-02T12:33:34.495Z,7.45
2023-04-02T12:36:05.423Z,8.30
2023-04-02T12:38:40.421Z,5.72
2023-04-02T12:41:25.084Z,8.65
2023-04-02T12:44:03.266Z,9.05
2023-04-02T12:46:34.191Z,8.13
2023-04-02T12:49:07.584Z,5.80
2023-04-02T12:51:38.260Z,9.50
2023-04-02T12:54:08.013Z,8.75
2023-04-02T12:56:37.431Z,8.50
2023-04-02T12:59:24.702Z,10.90
2023-04-02T13:02:04.654Z,8.88
2023-04-02T13:04:33.906Z,11.07
2023-04-02T13:07:02.993Z,9.82
2023-04-02T13:09:35.967Z,10.60
2023-04-02T13:12:05.363Z,7.82
2023-04-02T13:14:36.047Z,8.73
2023-04-02T13:17:05.036Z,8.05
2023-04-02T13:19:34.858Z,6.78
2023-04-02T13:22:05.302Z,7.38
2023-04-02T13:24:34.804Z,12.27
2023-04-02T13:27:04.711Z,7.45
2023-04-02T13:29:36.536Z,8.35
2023-04-02T13:32:07.760Z,9.85
2023-04-02T13:34:36.750Z,6.05
2023-04-02T13:37:05.697Z,6.00
2023-04-02T13:39:34.651Z,6.93
2023-04-02T13:42:05.498Z,5.68
2023-04-02T13:44:40.456Z,8.43
2023-04-02T13:47:15.134Z,6.07
2023-04-02T13:49:44.080Z,8.32
2023-04-02T13:52:17.290Z,8.15
2023-04-02T13:54:53.784Z,8.35
2023-04-02T13:59:53.001Z,7.72
2023-04-02T14:02:26.095Z,7.68
2023-04-02T14:05:03.508Z,10.40
2023-04-02T14:07:52.492Z,9.77
2023-04-02T14:10:31.250Z,9.10
2023-04-02T14:13:13.213Z,9.00
2023-04-02T14:15:56.343Z,9.75
2023-04-02T14:18:42.129Z,9.55
2023-04-02T14:21:26.249Z,8.70
2023-04-02T14:24:08.236Z,11.48
2023-04-02T14:26:46.378Z,8.27
2023-04-02T14:29:23.583Z,7.43
2023-04-02T14:32:01.991Z,5.55
2023-04-02T14:34:37.252Z,7.97
2023-04-02T14:37:18.001Z,11.95
2023-04-02T14:39:56.384Z,7.90
2023-04-02T14:42:33.160Z,7.63
2023-04-02T14:45:07.509Z,8.32
2023-04-02T14:47:44.444Z,6.20
2023-04-02T14:50:17.748Z,7.72
2023-04-02T14:52:52.487Z,6.57
2023-04-02T14:55:28.445Z,7.63
2023-04-02T14:58:01.220Z,6.63
2023-04-02T15:00:37.054Z,10.02
2023-04-02T15:03:15.480Z,8.95
2023-04-02T15:05:47.783Z,6.10
2023-04-02T15:08:22.806Z,7.00
2023-04-02T15:11:05.702Z,6.43
2023-04-02T15:13:39.301Z,7.15
2023-04-02T15:16:14.437Z,5.97
2023-04-02T15:18:45.182Z,8.82
2023-04-02T15:21:43.380Z,5.82
2023-04-02T15:24:27.500Z,5.45
2023-04-02T15:27:09.313Z,5.72
2023-04-02T15:29:48.866Z,7.00
2023-04-02T15:32:30.758Z,5.65
2023-04-02T15:35:10.907Z,3.40
2023-04-02T15:37:46.180Z,3.95
2023-04-02T15:40:39.420Z,4.05
2023-04-02T15:43:20.507Z,5.50
2023-04-02T15:46:07.169Z,4.00
2023-04-02T15:49:08.611Z,5.57
2023-04-02T15:51:52.516Z,4.10
2023-04-02T15:54:38.468Z,2.88
2023-04-02T15:57:20.676Z,4.83
2023-04-02T16:00:03.695Z,3.58
2023-04-02T16:02:53.479Z,3.95
2023-04-02T16:05:37.533Z,4.45
2023-04-02T16:08:30.097Z,3.58
2023-04-02T16:10:59.357Z,5.20
2023-04-02T16:13:32.434Z,3.65
2023-04-02T16:16:07.183Z,4.00
2023-04-02T16:18:45.599Z,5.30
2023-04-02T16:21:20.573Z,3.95
2023-04-02T16:23:51.981Z,5.78
2023-04-02T16:26:37.997Z,5.88
2023-04-02T16:29:23.051Z,6.72
2023-04-02T16:31:59.300Z,3.90
2023-04-02T16:34:38.811Z,6.47
2023-04-02T16:37:17.359Z,5.55
2023-04-02T16:39:55.401Z,5.22
2023-04-02T16:42:35.847Z,4.68
2023-04-02T16:45:25.167Z,5.13
2023-04-02T16:48:06.860Z,7.90
2023-04-02T16:50:45.692Z,4.78
2023-04-02T16:53:27.668Z,6.15
2023-04-02T16:56:17.661Z,5.15
2023-04-02T16:58:55.596Z,7.07
2023-04-02T17:01:35.891Z,5.30
2023-04-02T17:04:18.474Z,6.80
2023-04-02T17:06:56.223Z,5.25
2023-04-02T17:09:32.909Z,7.07
2023-04-02T17:12:15.751Z,5.95
2023-04-02T17:14:51.979Z,7.30
2023-04-02T17:17:23.534Z,5.63
2023-04-02T17:19:57.350Z,5.57
2023-04-02T17:22:26.581Z,6.18
2023-04-02T17:24:58.874Z,7.30
2023-04-02T17:27:33.635Z,6.10
2023-04-02T17:30:13.107Z,5.75
2023-04-02T17:32:42.120Z,7.55
2023-04-02T17:35:19.830Z,6.55
2023-04-02T17:37:55.806Z,4.97
2023-04-02T17:40:32.141Z,5.07
2023-04-02T17:43:11.271Z,4.75
2023-04-02T17:45:47.590Z,5.03
2023-04-02T17:48:22.812Z,7.15
2023-04-02T17:51:09.822Z,4.53
2023-04-02T17:54:04.376Z,7.97
2023-04-02T17:56:56.902Z,5.63
2023-04-02T17:59:48.168Z,18.50
2023-04-02T18:02:30.828Z,6.28
2023-04-02T18:05:08.803Z,4.80
2023-04-02T18:07:46.629Z,6.70
2023-04-02T18:10:21.892Z,6.53
2023-04-02T18:12:57.962Z,6.35
2023-04-02T18:15:56.347Z,7.50
2023-04-02T18:18:54.186Z,7.28
2023-04-02T18:21:32.366Z,6.20
2023-04-02T18:24:15.479Z,4.82
2023-04-02T18:26:54.527Z,5.20
2023-04-02T18:29:31.861Z,6.28
2023-04-02T18:32:20.833Z,5.05
2023-04-02T18:35:02.803Z,5.07
2023-04-02T18:37:38.428Z,5.47
2023-04-02T18:43:01.562Z,9.77
2023-04-02T18:45:39.451Z,5.75
2023-04-02T18:48:20.365Z,4.30
2023-04-02T18:50:50.256Z,6.53
2023-04-02T18:53:22.724Z,4.97
2023-04-02T18:55:56.561Z,4.55
2023-04-02T18:58:29.686Z,7.35
2023-04-02T19:01:00.585Z,7.18
2023-04-02T19:03:38.727Z,7.15
2023-04-02T19:06:10.939Z,5.65
2023-04-02T19:08:45.384Z,6.32
2023-04-02T19:11:17.826Z,4.65
2023-04-02T19:13:49.145Z,4.40
2023-04-02T19:16:45.642Z,4.35
2023-04-02T19:19:21.973Z,4.57
2023-04-02T19:22:09.816Z,6.57
2023-04-02T19:24:55.858Z,4.57
2023-04-02T19:30:07.418Z,4.35
2023-04-02T19:32:45.313Z,6.93
2023-04-02T19:35:22.687Z,5.57
2023-04-02T19:38:00.512Z,4.97
2023-04-02T19:40:36.818Z,5.07
2023-04-02T19:43:05.927Z,8.20
2023-04-02T19:45:39.654Z,5.93
2023-04-02T19:48:14.298Z,6.95
2023-04-02T19:50:45.361Z,5.72
2023-04-02T19:53:15.109Z,6.38
2023-04-02T19:55:44.523Z,3.85
2023-04-02T19:58:23.318Z,4.70
2023-04-02T20:00:52.393Z,5.88
2023-04-02T20:03:21.388Z,6.20
2023-04-02T20:05:52.313Z,6.30
2023-04-02T20:08:21.689Z,6.35
2023-04-02T20:10:50.948Z,8.18
2023-04-02T20:13:20.132Z,5.65
2023-04-02T20:15:49.950Z,9.52
2023-04-02T20:18:19.001Z,6.30
2023-04-02T20:20:48.312Z,4.93
2023-04-02T20:23:19.436Z,5.15
2023-04-02T20:25:49.087Z,6.07
2023-04-02T20:28:18.046Z,7.18
2023-04-02T20:30:47.323Z,6.32
2023-04-02T20:33:17.469Z,6.63
2023-04-02T20:35:46.735Z,5.22
2023-04-02T20:38:17.793Z,5.55
2023-04-02T20:40:52.979Z,6.47
2023-04-02T20:43:22.450Z,7.13
2023-04-02T20:45:58.296Z,6.88
2023-04-02T20:50:58.082Z,5.20
2023-04-02T20:53:30.265Z,9.35
2023-04-02T20:56:05.415Z,6.95
2023-04-02T20:58:35.215Z,5.78
2023-04-02T21:01:12.739Z,7.88
2023-04-02T21:03:42.032Z,5.47
2023-04-02T21:06:15.460Z,6.43
2023-04-02T21:08:47.061Z,5.28
2023-04-02T21:11:17.070Z,7.15
2023-04-02T21:13:46.723Z,7.28
2023-04-02T21:16:17.685Z,7.03
2023-04-02T21:18:47.607Z,4.88
2023-04-02T21:21:16.917Z,6.88
2023-04-02T21:23:47.886Z,4.65
2023-04-02T21:26:18.055Z,5.25
2023-04-02T21:28:47.441Z,5.43
2023-04-02T21:31:17.965Z,5.43
2023-04-02T21:33:48.891Z,7.13
2023-04-02T21:36:19.840Z,7.78
2023-04-02T21:38:52.709Z,5.82
2023-04-02T21:41:23.275Z,6.43
2023-04-02T21:43:52.638Z,6.10
2023-04-02T21:46:23.298Z,8.73
2023-04-02T21:48:53.150Z,8.50
2023-04-02T21:51:25.027Z,16.35
2023-04-02T21:53:56.285Z,11.68
2023-04-02T21:56:27.449Z,14.23
2023-04-02T21:58:57.761Z,11.07
2023-04-02T22:01:30.694Z,12.73
2023-04-02T22:04:01.628Z,11.25
2023-04-02T22:06:32.457Z,11.23
2023-04-02T22:09:04.891Z,11.85
2023-04-02T22:11:35.784Z,11.02
2023-04-02T22:14:05.193Z,9.50
2023-04-02T22:16:36.199Z,13.07
2023-04-02T22:19:07.916Z,9.68
2023-04-02T22:21:37.680Z,11.18
2023-04-02T22:24:10.608Z,12.77
2023-04-02T22:26:41.041Z,12.52
2023-04-02T22:29:10.153Z,11.35
2023-04-02T22:31:39.471Z,9.95
2023-04-02T22:34:09.082Z,10.60
2023-04-02T22:36:38.072Z,10.93
2023-04-02T22:39:11.267Z,11.98
2023-04-02T22:41:40.253Z,14.25
2023-04-02T22:44:13.621Z,15.30
2023-04-02T22:46:42.578Z,10.30
2023-04-02T22:49:12.483Z,11.27
2023-04-02T22:51:42.180Z,14.13
2023-04-02T22:54:13.790Z,13.50
2023-04-02T22:56:42.888Z,11.32
2023-04-02T22:59:11.881Z,13.80
2023-04-02T23:01:41.580Z,11.07
2023-04-02T23:04:10.773Z,9.10
2023-04-02T23:06:39.734Z,12.02
2023-04-02T23:09:08.874Z,11.20
2023-04-02T23:11:39.751Z,11.68
2023-04-02T23:14:08.797Z,8.35
2023-04-02T23:16:37.768Z,12.05
2023-04-02T23:19:06.927Z,12.90
2023-04-02T23:21:35.929Z,9.98
2023-04-02T23:24:04.989Z,8.88
2023-04-02T23:26:33.970Z,8.15
2023-04-02T23:29:04.649Z,8.88
2023-04-02T23:31:33.789Z,12.43
2023-04-02T23:34:02.806Z,10.55
2023-04-02T23:36:33.391Z,9.05
2023-04-02T23:39:04.831Z,10.10
2023-04-02T23:41:33.793Z,9.80
2023-04-02T23:44:05.322Z,10.48
2023-04-02T23:46:35.074Z,10.77
2023-04-02T23:49:04.719Z,9.55
2023-04-02T23:51:34.158Z,10.10
2023-04-02T23:54:03.195Z,10.18
2023-04-02T23:56:32.560Z,13.50
2023-04-02T23:59:01.784Z,10.73
